sensor_id;sensor_type;location;lat;lon;timestamp;P1;durP1;ratioP1;P2;durP2;ratioP2
16119;SDS011;12670;53.502;10.252;2023-11-19T00:02:08;9.73;;;5.73;;
16119;SDS011;12670;53.502;10.252;2023-11-19T00:05:11;9.80;;;5.90;;
16119;SDS011;12670;53.502;10.252;2023-11-19T00:08:14;11.63;;;6.30;;
16119;SDS011;12670;53.502;10.252;2023-11-19T00:11:18;8.50;;;5.23;;
16119;SDS011;12670;53.502;10.252;2023-11-19T00:14:21;7.17;;;4.67;;
16119;SDS011;12670;53.502;10.252;2023-11-19T00:17:23;7.00;;;4.57;;
16119;SDS011;12670;53.502;10.252;2023-11-19T00:20:26;7.73;;;5.10;;
16119;SDS011;12670;53.502;10.252;2023-11-19T00:23:30;9.23;;;4.73;;
16119;SDS011;12670;53.502;10.252;2023-11-19T00:26:34;7.60;;;4.77;;
16119;SDS011;12670;53.502;10.252;2023-11-19T00:29:36;8.47;;;4.57;;
16119;SDS011;12670;53.502;10.252;2023-11-19T00:32:39;7.17;;;3.50;;
16119;SDS011;12670;53.502;10.252;2023-11-19T00:35:42;7.10;;;3.90;;
16119;SDS011;12670;53.502;10.252;2023-11-19T00:38:44;6.57;;;3.77;;
16119;SDS011;12670;53.502;10.252;2023-11-19T00:41:48;6.50;;;3.53;;
16119;SDS011;12670;53.502;10.252;2023-11-19T00:44:51;4.73;;;3.47;;
16119;SDS011;12670;53.502;10.252;2023-11-19T00:47:54;4.83;;;3.17;;
16119;SDS011;12670;53.502;10.252;2023-11-19T00:50:57;5.07;;;3.50;;
16119;SDS011;12670;53.502;10.252;2023-11-19T00:53:59;5.03;;;3.40;;
16119;SDS011;12670;53.502;10.252;2023-11-19T00:57:04;5.40;;;3.60;;
16119;SDS011;12670;53.502;10.252;2023-11-19T01:00:07;5.03;;;3.40;;
16119;SDS011;12670;53.502;10.252;2023-11-19T01:03:20;7.00;;;3.23;;
16119;SDS011;12670;53.502;10.252;2023-11-19T01:06:29;5.50;;;3.27;;
16119;SDS011;12670;53.502;10.252;2023-11-19T01:09:32;5.53;;;3.10;;
16119;SDS011;12670;53.502;10.252;2023-11-19T01:12:37;4.03;;;2.97;;
16119;SDS011;12670;53.502;10.252;2023-11-19T01:15:40;3.90;;;2.80;;
16119;SDS011;12670;53.502;10.252;2023-11-19T01:18:43;7.10;;;3.00;;
16119;SDS011;12670;53.502;10.252;2023-11-19T01:21:46;3.17;;;2.53;;
16119;SDS011;12670;53.502;10.252;2023-11-19T01:24:48;3.20;;;2.43;;
16119;SDS011;12670;53.502;10.252;2023-11-19T01:27:54;4.73;;;2.87;;
16119;SDS011;12670;53.502;10.252;2023-11-19T01:30:59;4.07;;;2.50;;
16119;SDS011;12670;53.502;10.252;2023-11-19T01:34:02;3.17;;;2.30;;
16119;SDS011;12670;53.502;10.252;2023-11-19T01:37:04;2.80;;;2.17;;
16119;SDS011;12670;53.502;10.252;2023-11-19T01:40:07;2.80;;;2.30;;
16119;SDS011;12670;53.502;10.252;2023-11-19T01:43:24;2.93;;;2.07;;
16119;SDS011;12670;53.502;10.252;2023-11-19T01:46:33;3.17;;;2.20;;
16119;SDS011;12670;53.502;10.252;2023-11-19T01:49:38;2.23;;;1.80;;
16119;SDS011;12670;53.502;10.252;2023-11-19T01:52:40;3.00;;;2.07;;
16119;SDS011;12670;53.502;10.252;2023-11-19T01:55:43;5.13;;;2.00;;
16119;SDS011;12670;53.502;10.252;2023-11-19T01:58:47;3.67;;;1.93;;
16119;SDS011;12670;53.502;10.252;2023-11-19T02:01:52;3.00;;;2.07;;
16119;SDS011;12670;53.502;10.252;2023-11-19T02:05:01;2.93;;;1.90;;
16119;SDS011;12670;53.502;10.252;2023-11-19T02:08:05;2.70;;;1.80;;
16119;SDS011;12670;53.502;10.252;2023-11-19T02:11:07;2.43;;;1.80;;
16119;SDS011;12670;53.502;10.252;2023-11-19T02:14:12;3.40;;;1.90;;
16119;SDS011;12670;53.502;10.252;2023-11-19T02:17:27;2.20;;;1.70;;
16119;SDS011;12670;53.502;10.252;2023-11-19T02:20:30;2.17;;;1.93;;
16119;SDS011;12670;53.502;10.252;2023-11-19T02:23:33;2.47;;;1.77;;
16119;SDS011;12670;53.502;10.252;2023-11-19T02:26:37;1.60;;;1.50;;
16119;SDS011;12670;53.502;10.252;2023-11-19T02:29:43;1.73;;;1.40;;
16119;SDS011;12670;53.502;10.252;2023-11-19T02:32:46;1.90;;;1.50;;
16119;SDS011;12670;53.502;10.252;2023-11-19T02:35:49;4.00;;;1.70;;
16119;SDS011;12670;53.502;10.252;2023-11-19T02:38:52;3.37;;;1.87;;
16119;SDS011;12670;53.502;10.252;2023-11-19T02:41:54;2.63;;;1.63;;
16119;SDS011;12670;53.502;10.252;2023-11-19T02:44:58;2.20;;;1.80;;
16119;SDS011;12670;53.502;10.252;2023-11-19T02:48:01;2.10;;;1.73;;
16119;SDS011;12670;53.502;10.252;2023-11-19T02:51:04;2.50;;;1.80;;
16119;SDS011;12670;53.502;10.252;2023-11-19T02:54:10;1.80;;;1.70;;
16119;SDS011;12670;53.502;10.252;2023-11-19T02:57:13;3.00;;;1.97;;
16119;SDS011;12670;53.502;10.252;2023-11-19T03:00:21;2.30;;;1.90;;
16119;SDS011;12670;53.502;10.252;2023-11-19T03:03:26;1.60;;;1.50;;
16119;SDS011;12670;53.502;10.252;2023-11-19T03:06:39;4.40;;;2.07;;
16119;SDS011;12670;53.502;10.252;2023-11-19T03:09:41;2.07;;;1.80;;
16119;SDS011;12670;53.502;10.252;2023-11-19T03:12:45;4.13;;;2.00;;
16119;SDS011;12670;53.502;10.252;2023-11-19T03:15:49;4.00;;;2.00;;
16119;SDS011;12670;53.502;10.252;2023-11-19T03:18:52;3.30;;;2.17;;
16119;SDS011;12670;53.502;10.252;2023-11-19T03:21:55;2.43;;;2.03;;
16119;SDS011;12670;53.502;10.252;2023-11-19T03:24:58;2.43;;;1.90;;
16119;SDS011;12670;53.502;10.252;2023-11-19T03:28:01;3.00;;;2.23;;
16119;SDS011;12670;53.502;10.252;2023-11-19T03:31:06;2.70;;;2.07;;
16119;SDS011;12670;53.502;10.252;2023-11-19T03:34:10;2.60;;;2.20;;
16119;SDS011;12670;53.502;10.252;2023-11-19T03:37:13;32.67;;;2.83;;
16119;SDS011;12670;53.502;10.252;2023-11-19T03:40:17;3.73;;;2.20;;
16119;SDS011;12670;53.502;10.252;2023-11-19T03:43:21;4.27;;;2.20;;
16119;SDS011;12670;53.502;10.252;2023-11-19T03:46:25;2.33;;;2.10;;
16119;SDS011;12670;53.502;10.252;2023-11-19T03:49:28;3.30;;;1.93;;
16119;SDS011;12670;53.502;10.252;2023-11-19T03:52:31;2.33;;;1.97;;
16119;SDS011;12670;53.502;10.252;2023-11-19T03:55:44;6.07;;;2.37;;
16119;SDS011;12670;53.502;10.252;2023-11-19T03:58:47;3.23;;;2.40;;
16119;SDS011;12670;53.502;10.252;2023-11-19T04:01:51;3.53;;;2.50;;
16119;SDS011;12670;53.502;10.252;2023-11-19T04:04:55;5.23;;;2.53;;
16119;SDS011;12670;53.502;10.252;2023-11-19T04:07:57;3.33;;;2.60;;
16119;SDS011;12670;53.502;10.252;2023-11-19T04:11:00;4.30;;;2.77;;
16119;SDS011;12670;53.502;10.252;2023-11-19T04:14:03;2.80;;;2.30;;
16119;SDS011;12670;53.502;10.252;2023-11-19T04:17:07;3.97;;;2.37;;
16119;SDS011;12670;53.502;10.252;2023-11-19T04:20:10;3.57;;;2.50;;
16119;SDS011;12670;53.502;10.252;2023-11-19T04:23:15;4.33;;;2.80;;
16119;SDS011;12670;53.502;10.252;2023-11-19T04:26:17;4.27;;;2.40;;
16119;SDS011;12670;53.502;10.252;2023-11-19T04:29:20;3.27;;;2.40;;
16119;SDS011;12670;53.502;10.252;2023-11-19T04:32:24;2.87;;;2.33;;
16119;SDS011;12670;53.502;10.252;2023-11-19T04:35:28;3.57;;;2.80;;
16119;SDS011;12670;53.502;10.252;2023-11-19T04:38:30;3.73;;;2.60;;
16119;SDS011;12670;53.502;10.252;2023-11-19T04:41:33;5.93;;;2.70;;
16119;SDS011;12670;53.502;10.252;2023-11-19T04:44:36;6.20;;;2.50;;
16119;SDS011;12670;53.502;10.252;2023-11-19T04:47:40;3.23;;;2.50;;
16119;SDS011;12670;53.502;10.252;2023-11-19T04:50:42;4.97;;;3.10;;
16119;SDS011;12670;53.502;10.252;2023-11-19T04:53:45;3.50;;;2.70;;
16119;SDS011;12670;53.502;10.252;2023-11-19T04:56:48;3.87;;;2.80;;
16119;SDS011;12670;53.502;10.252;2023-11-19T04:59:51;5.77;;;3.00;;
16119;SDS011;12670;53.502;10.252;2023-11-19T05:02:55;5.83;;;3.50;;
16119;SDS011;12670;53.502;10.252;2023-11-19T05:05:58;6.83;;;3.40;;
16119;SDS011;12670;53.502;10.252;2023-11-19T05:09:01;6.67;;;3.90;;
16119;SDS011;12670;53.502;10.252;2023-11-19T05:12:07;7.03;;;3.23;;
16119;SDS011;12670;53.502;10.252;2023-11-19T05:15:13;4.60;;;3.70;;
16119;SDS011;12670;53.502;10.252;2023-11-19T05:18:17;6.67;;;3.40;;
16119;SDS011;12670;53.502;10.252;2023-11-19T05:21:20;6.00;;;4.13;;
16119;SDS011;12670;53.502;10.252;2023-11-19T05:24:23;9.43;;;4.50;;
16119;SDS011;12670;53.502;10.252;2023-11-19T05:27:25;4.47;;;3.63;;
16119;SDS011;12670;53.502;10.252;2023-11-19T05:30:29;7.53;;;4.80;;
16119;SDS011;12670;53.502;10.252;2023-11-19T05:33:34;6.17;;;4.50;;
16119;SDS011;12670;53.502;10.252;2023-11-19T05:36:36;6.53;;;4.57;;
16119;SDS011;12670;53.502;10.252;2023-11-19T05:39:41;12.63;;;6.63;;
16119;SDS011;12670;53.502;10.252;2023-11-19T05:42:44;21.27;;;10.50;;
16119;SDS011;12670;53.502;10.252;2023-11-19T05:45:47;13.90;;;6.67;;
16119;SDS011;12670;53.502;10.252;2023-11-19T05:48:51;18.83;;;10.20;;
16119;SDS011;12670;53.502;10.252;2023-11-19T05:51:54;27.17;;;12.37;;
16119;SDS011;12670;53.502;10.252;2023-11-19T05:54:57;16.93;;;8.30;;
16119;SDS011;12670;53.502;10.252;2023-11-19T05:58:00;15.10;;;8.23;;
16119;SDS011;12670;53.502;10.252;2023-11-19T06:01:02;13.07;;;8.40;;
16119;SDS011;12670;53.502;10.252;2023-11-19T06:04:10;17.17;;;8.73;;
16119;SDS011;12670;53.502;10.252;2023-11-19T06:07:13;15.60;;;9.13;;
16119;SDS011;12670;53.502;10.252;2023-11-19T06:10:16;23.80;;;8.83;;
16119;SDS011;12670;53.502;10.252;2023-11-19T06:13:19;24.40;;;9.67;;
16119;SDS011;12670;53.502;10.252;2023-11-19T06:16:25;18.60;;;8.90;;
16119;SDS011;12670;53.502;10.252;2023-11-19T06:19:29;19.70;;;10.10;;
16119;SDS011;12670;53.502;10.252;2023-11-19T06:22:33;27.30;;;13.20;;
16119;SDS011;12670;53.502;10.252;2023-11-19T06:25:36;24.43;;;10.93;;
16119;SDS011;12670;53.502;10.252;2023-11-19T06:28:39;21.97;;;11.10;;
16119;SDS011;12670;53.502;10.252;2023-11-19T06:31:42;24.00;;;10.23;;
16119;SDS011;12670;53.502;10.252;2023-11-19T06:34:46;24.27;;;11.83;;
16119;SDS011;12670;53.502;10.252;2023-11-19T06:37:49;40.00;;;17.60;;
16119;SDS011;12670;53.502;10.252;2023-11-19T06:40:52;36.33;;;16.73;;
16119;SDS011;12670;53.502;10.252;2023-11-19T06:43:55;29.97;;;12.30;;
16119;SDS011;12670;53.502;10.252;2023-11-19T06:46:58;41.97;;;16.57;;
16119;SDS011;12670;53.502;10.252;2023-11-19T06:50:02;30.30;;;13.23;;
16119;SDS011;12670;53.502;10.252;2023-11-19T06:53:06;30.47;;;11.80;;
16119;SDS011;12670;53.502;10.252;2023-11-19T06:56:18;26.73;;;10.33;;
16119;SDS011;12670;53.502;10.252;2023-11-19T06:59:22;33.30;;;10.27;;
16119;SDS011;12670;53.502;10.252;2023-11-19T07:02:25;33.87;;;11.50;;
16119;SDS011;12670;53.502;10.252;2023-11-19T07:05:29;20.13;;;9.30;;
16119;SDS011;12670;53.502;10.252;2023-11-19T07:08:32;33.37;;;10.17;;
16119;SDS011;12670;53.502;10.252;2023-11-19T07:11:35;26.77;;;9.00;;
16119;SDS011;12670;53.502;10.252;2023-11-19T07:14:40;33.37;;;9.20;;
16119;SDS011;12670;53.502;10.252;2023-11-19T07:17:43;24.53;;;7.20;;
16119;SDS011;12670;53.502;10.252;2023-11-19T07:20:48;25.40;;;7.47;;
16119;SDS011;12670;53.502;10.252;2023-11-19T07:23:50;33.17;;;8.73;;
16119;SDS011;12670;53.502;10.252;2023-11-19T07:26:53;27.90;;;6.90;;
16119;SDS011;12670;53.502;10.252;2023-11-19T07:29:56;31.13;;;7.70;;
16119;SDS011;12670;53.502;10.252;2023-11-19T07:32:59;31.80;;;8.03;;
16119;SDS011;12670;53.502;10.252;2023-11-19T07:36:03;32.23;;;7.33;;
16119;SDS011;12670;53.502;10.252;2023-11-19T07:39:07;25.20;;;6.77;;
16119;SDS011;12670;53.502;10.252;2023-11-19T07:42:10;20.83;;;5.23;;
16119;SDS011;12670;53.502;10.252;2023-11-19T07:45:12;23.67;;;5.87;;
16119;SDS011;12670;53.502;10.252;2023-11-19T07:48:15;27.73;;;5.93;;
16119;SDS011;12670;53.502;10.252;2023-11-19T07:51:20;18.53;;;4.80;;
16119;SDS011;12670;53.502;10.252;2023-11-19T07:54:23;24.13;;;5.40;;
16119;SDS011;12670;53.502;10.252;2023-11-19T07:57:26;27.17;;;6.17;;
16119;SDS011;12670;53.502;10.252;2023-11-19T08:00:31;26.97;;;5.33;;
16119;SDS011;12670;53.502;10.252;2023-11-19T08:03:34;30.40;;;5.73;;
16119;SDS011;12670;53.502;10.252;2023-11-19T08:06:38;29.33;;;5.67;;
16119;SDS011;12670;53.502;10.252;2023-11-19T08:09:41;29.63;;;6.07;;
16119;SDS011;12670;53.502;10.252;2023-11-19T08:12:43;36.10;;;5.97;;
16119;SDS011;12670;53.502;10.252;2023-11-19T08:15:46;34.17;;;6.00;;
16119;SDS011;12670;53.502;10.252;2023-11-19T08:18:49;34.47;;;5.57;;
16119;SDS011;12670;53.502;10.252;2023-11-19T08:21:53;27.43;;;5.37;;
16119;SDS011;12670;53.502;10.252;2023-11-19T08:24:55;30.70;;;5.13;;
16119;SDS011;12670;53.502;10.252;2023-11-19T08:27:58;41.73;;;6.37;;
16119;SDS011;12670;53.502;10.252;2023-11-19T08:31:01;34.07;;;5.77;;
16119;SDS011;12670;53.502;10.252;2023-11-19T08:34:05;26.90;;;5.67;;
16119;SDS011;12670;53.502;10.252;2023-11-19T08:37:11;31.90;;;5.60;;
16119;SDS011;12670;53.502;10.252;2023-11-19T08:40:14;49.17;;;7.27;;
16119;SDS011;12670;53.502;10.252;2023-11-19T08:43:16;34.53;;;5.20;;
16119;SDS011;12670;53.502;10.252;2023-11-19T08:46:19;29.93;;;5.37;;
16119;SDS011;12670;53.502;10.252;2023-11-19T08:49:22;31.93;;;5.83;;
16119;SDS011;12670;53.502;10.252;2023-11-19T08:52:26;38.17;;;6.27;;
16119;SDS011;12670;53.502;10.252;2023-11-19T08:55:31;46.10;;;5.80;;
16119;SDS011;12670;53.502;10.252;2023-11-19T08:58:33;35.70;;;5.17;;
16119;SDS011;12670;53.502;10.252;2023-11-19T09:01:36;30.83;;;5.63;;
16119;SDS011;12670;53.502;10.252;2023-11-19T09:04:39;36.70;;;6.00;;
16119;SDS011;12670;53.502;10.252;2023-11-19T09:07:43;34.20;;;4.93;;
16119;SDS011;12670;53.502;10.252;2023-11-19T09:10:46;35.33;;;5.53;;
16119;SDS011;12670;53.502;10.252;2023-11-19T09:13:48;35.77;;;5.03;;
16119;SDS011;12670;53.502;10.252;2023-11-19T09:16:51;37.17;;;5.57;;
16119;SDS011;12670;53.502;10.252;2023-11-19T09:19:54;37.07;;;5.73;;
16119;SDS011;12670;53.502;10.252;2023-11-19T09:22:58;33.87;;;5.20;;
16119;SDS011;12670;53.502;10.252;2023-11-19T09:26:01;34.67;;;5.17;;
16119;SDS011;12670;53.502;10.252;2023-11-19T09:29:03;24.43;;;4.80;;
16119;SDS011;12670;53.502;10.252;2023-11-19T09:32:06;41.57;;;6.17;;
16119;SDS011;12670;53.502;10.252;2023-11-19T09:35:09;36.23;;;6.47;;
16119;SDS011;12670;53.502;10.252;2023-11-19T09:38:16;39.90;;;5.57;;
16119;SDS011;12670;53.502;10.252;2023-11-19T09:41:19;36.37;;;5.90;;
16119;SDS011;12670;53.502;10.252;2023-11-19T09:44:21;40.77;;;6.23;;
16119;SDS011;12670;53.502;10.252;2023-11-19T09:47:26;30.33;;;6.30;;
16119;SDS011;12670;53.502;10.252;2023-11-19T09:50:31;37.93;;;5.20;;
16119;SDS011;12670;53.502;10.252;2023-11-19T09:53:35;39.67;;;5.03;;
16119;SDS011;12670;53.502;10.252;2023-11-19T09:56:38;36.13;;;5.50;;
16119;SDS011;12670;53.502;10.252;2023-11-19T09:59:41;40.50;;;5.83;;
16119;SDS011;12670;53.502;10.252;2023-11-19T10:02:44;37.83;;;5.70;;
16119;SDS011;12670;53.502;10.252;2023-11-19T10:05:48;42.87;;;6.43;;
16119;SDS011;12670;53.502;10.252;2023-11-19T10:08:52;38.93;;;6.00;;
16119;SDS011;12670;53.502;10.252;2023-11-19T10:11:56;41.63;;;5.40;;
16119;SDS011;12670;53.502;10.252;2023-11-19T10:14:59;39.10;;;7.33;;
16119;SDS011;12670;53.502;10.252;2023-11-19T10:18:02;40.13;;;6.80;;
16119;SDS011;12670;53.502;10.252;2023-11-19T10:21:06;70.50;;;18.63;;
16119;SDS011;12670;53.502;10.252;2023-11-19T10:24:10;44.70;;;11.10;;
16119;SDS011;12670;53.502;10.252;2023-11-19T10:27:12;45.73;;;7.10;;
16119;SDS011;12670;53.502;10.252;2023-11-19T10:30:17;34.63;;;4.90;;
16119;SDS011;12670;53.502;10.252;2023-11-19T10:33:20;36.53;;;5.77;;
16119;SDS011;12670;53.502;10.252;2023-11-19T10:36:23;26.53;;;4.83;;
16119;SDS011;12670;53.502;10.252;2023-11-19T10:43:01;32.87;;;5.40;;
16119;SDS011;12670;53.502;10.252;2023-11-19T10:46:11;35.00;;;5.17;;
16119;SDS011;12670;53.502;10.252;2023-11-19T10:49:15;37.97;;;5.10;;
16119;SDS011;12670;53.502;10.252;2023-11-19T10:52:17;34.30;;;5.73;;
16119;SDS011;12670;53.502;10.252;2023-11-19T10:55:23;38.77;;;5.40;;
16119;SDS011;12670;53.502;10.252;2023-11-19T10:58:29;43.13;;;5.97;;
16119;SDS011;12670;53.502;10.252;2023-11-19T11:01:37;36.53;;;5.67;;
16119;SDS011;12670;53.502;10.252;2023-11-19T11:04:45;31.13;;;5.10;;
16119;SDS011;12670;53.502;10.252;2023-11-19T11:07:49;43.57;;;5.93;;
16119;SDS011;12670;53.502;10.252;2023-11-19T11:10:58;53.37;;;9.90;;
16119;SDS011;12670;53.502;10.252;2023-11-19T11:14:02;42.13;;;9.43;;
16119;SDS011;12670;53.502;10.252;2023-11-19T11:17:07;36.10;;;8.03;;
16119;SDS011;12670;53.502;10.252;2023-11-19T11:20:11;39.73;;;9.57;;
16119;SDS011;12670;53.502;10.252;2023-11-19T11:23:34;34.80;;;7.03;;
16119;SDS011;12670;53.502;10.252;2023-11-19T11:30:49;27.43;;;5.00;;
16119;SDS011;12670;53.502;10.252;2023-11-19T11:34:14;31.70;;;5.50;;
16119;SDS011;12670;53.502;10.252;2023-11-19T11:37:47;28.97;;;5.10;;
16119;SDS011;12670;53.502;10.252;2023-11-19T11:41:14;35.00;;;5.30;;
16119;SDS011;12670;53.502;10.252;2023-11-19T11:44:20;40.07;;;5.43;;
16119;SDS011;12670;53.502;10.252;2023-11-19T11:48:04;49.73;;;5.87;;
16119;SDS011;12670;53.502;10.252;2023-11-19T11:51:13;35.53;;;4.57;;
16119;SDS011;12670;53.502;10.252;2023-11-19T11:54:25;33.17;;;5.70;;
16119;SDS011;12670;53.502;10.252;2023-11-19T11:57:29;44.23;;;5.73;;
16119;SDS011;12670;53.502;10.252;2023-11-19T12:00:40;40.13;;;6.37;;
16119;SDS011;12670;53.502;10.252;2023-11-19T12:03:44;36.83;;;5.37;;
16119;SDS011;12670;53.502;10.252;2023-11-19T12:07:02;37.03;;;5.20;;
16119;SDS011;12670;53.502;10.252;2023-11-19T12:10:06;39.17;;;5.63;;
16119;SDS011;12670;53.502;10.252;2023-11-19T12:13:11;32.30;;;5.77;;
16119;SDS011;12670;53.502;10.252;2023-11-19T12:16:15;34.13;;;4.83;;
16119;SDS011;12670;53.502;10.252;2023-11-19T12:19:18;36.87;;;5.30;;
16119;SDS011;12670;53.502;10.252;2023-11-19T12:22:21;26.10;;;4.70;;
16119;SDS011;12670;53.502;10.252;2023-11-19T12:25:27;36.70;;;5.60;;
16119;SDS011;12670;53.502;10.252;2023-11-19T12:28:36;43.37;;;5.87;;
16119;SDS011;12670;53.502;10.252;2023-11-19T12:31:45;35.07;;;5.00;;
16119;SDS011;12670;53.502;10.252;2023-11-19T12:34:56;35.67;;;6.07;;
16119;SDS011;12670;53.502;10.252;2023-11-19T12:37:59;46.27;;;5.93;;
16119;SDS011;12670;53.502;10.252;2023-11-19T12:41:05;36.73;;;4.93;;
16119;SDS011;12670;53.502;10.252;2023-11-19T12:44:09;31.17;;;4.63;;
16119;SDS011;12670;53.502;10.252;2023-11-19T12:47:14;41.50;;;5.50;;
16119;SDS011;12670;53.502;10.252;2023-11-19T12:50:20;37.20;;;5.60;;
16119;SDS011;12670;53.502;10.252;2023-11-19T12:53:22;30.63;;;4.90;;
16119;SDS011;12670;53.502;10.252;2023-11-19T12:56:26;32.40;;;4.70;;
16119;SDS011;12670;53.502;10.252;2023-11-19T12:59:30;27.80;;;4.87;;
16119;SDS011;12670;53.502;10.252;2023-11-19T13:02:46;31.93;;;6.20;;
16119;SDS011;12670;53.502;10.252;2023-11-19T13:05:50;37.80;;;6.40;;
16119;SDS011;12670;53.502;10.252;2023-11-19T13:09:04;39.37;;;6.30;;
16119;SDS011;12670;53.502;10.252;2023-11-19T13:12:13;26.07;;;4.57;;
16119;SDS011;12670;53.502;10.252;2023-11-19T13:15:23;42.47;;;9.10;;
16119;SDS011;12670;53.502;10.252;2023-11-19T13:18:28;58.63;;;19.17;;
16119;SDS011;12670;53.502;10.252;2023-11-19T13:21:34;38.77;;;8.37;;
16119;SDS011;12670;53.502;10.252;2023-11-19T13:24:38;30.47;;;5.20;;
16119;SDS011;12670;53.502;10.252;2023-11-19T13:27:41;33.10;;;5.17;;
16119;SDS011;12670;53.502;10.252;2023-11-19T13:30:48;30.00;;;5.13;;
16119;SDS011;12670;53.502;10.252;2023-11-19T13:33:52;25.20;;;4.37;;
16119;SDS011;12670;53.502;10.252;2023-11-19T13:36:55;22.97;;;4.37;;
16119;SDS011;12670;53.502;10.252;2023-11-19T13:39:58;35.97;;;5.30;;
16119;SDS011;12670;53.502;10.252;2023-11-19T13:43:01;30.00;;;5.27;;
16119;SDS011;12670;53.502;10.252;2023-11-19T13:46:04;30.80;;;4.87;;
16119;SDS011;12670;53.502;10.252;2023-11-19T13:49:08;64.00;;;18.77;;
16119;SDS011;12670;53.502;10.252;2023-11-19T13:52:11;32.70;;;7.87;;
16119;SDS011;12670;53.502;10.252;2023-11-19T13:55:14;32.93;;;6.87;;
16119;SDS011;12670;53.502;10.252;2023-11-19T13:58:17;23.00;;;4.87;;
16119;SDS011;12670;53.502;10.252;2023-11-19T14:01:20;39.57;;;7.70;;
16119;SDS011;12670;53.502;10.252;2023-11-19T14:04:26;33.97;;;6.30;;
16119;SDS011;12670;53.502;10.252;2023-11-19T14:07:29;24.87;;;4.60;;
16119;SDS011;12670;53.502;10.252;2023-11-19T14:10:32;27.93;;;5.00;;
16119;SDS011;12670;53.502;10.252;2023-11-19T14:13:35;25.73;;;5.17;;
16119;SDS011;12670;53.502;10.252;2023-11-19T14:16:37;30.53;;;5.30;;
16119;SDS011;12670;53.502;10.252;2023-11-19T14:19:42;30.00;;;5.03;;
16119;SDS011;12670;53.502;10.252;2023-11-19T14:22:45;29.63;;;4.57;;
16119;SDS011;12670;53.502;10.252;2023-11-19T14:25:50;30.27;;;4.20;;
16119;SDS011;12670;53.502;10.252;2023-11-19T14:28:52;32.10;;;5.23;;
16119;SDS011;12670;53.502;10.252;2023-11-19T14:31:56;25.90;;;4.80;;
16119;SDS011;12670;53.502;10.252;2023-11-19T14:35:01;33.47;;;5.10;;
16119;SDS011;12670;53.502;10.252;2023-11-19T14:38:05;34.67;;;4.53;;
16119;SDS011;12670;53.502;10.252;2023-11-19T14:41:11;28.20;;;4.90;;
16119;SDS011;12670;53.502;10.252;2023-11-19T14:44:13;28.87;;;4.13;;
16119;SDS011;12670;53.502;10.252;2023-11-19T14:47:16;22.90;;;4.70;;
16119;SDS011;12670;53.502;10.252;2023-11-19T14:50:20;27.37;;;4.83;;
16119;SDS011;12670;53.502;10.252;2023-11-19T14:53:23;28.23;;;4.40;;
16119;SDS011;12670;53.502;10.252;2023-11-19T14:56:26;28.73;;;4.70;;
16119;SDS011;12670;53.502;10.252;2023-11-19T14:59:29;29.60;;;5.20;;
16119;SDS011;12670;53.502;10.252;2023-11-19T15:02:31;33.70;;;5.17;;
16119;SDS011;12670;53.502;10.252;2023-11-19T15:05:35;23.87;;;4.90;;
16119;SDS011;12670;53.502;10.252;2023-11-19T15:08:38;32.03;;;5.00;;
16119;SDS011;12670;53.502;10.252;2023-11-19T15:11:41;26.63;;;4.63;;
16119;SDS011;12670;53.502;10.252;2023-11-19T15:14:44;26.00;;;4.73;;
16119;SDS011;12670;53.502;10.252;2023-11-19T15:17:46;27.57;;;4.57;;
16119;SDS011;12670;53.502;10.252;2023-11-19T15:20:51;25.90;;;4.47;;
16119;SDS011;12670;53.502;10.252;2023-11-19T15:23:53;29.17;;;4.37;;
16119;SDS011;12670;53.502;10.252;2023-11-19T15:26:56;22.67;;;4.43;;
16119;SDS011;12670;53.502;10.252;2023-11-19T15:30:15;27.03;;;4.70;;
16119;SDS011;12670;53.502;10.252;2023-11-19T15:33:18;26.80;;;4.67;;
16119;SDS011;12670;53.502;10.252;2023-11-19T15:36:22;27.67;;;5.07;;
16119;SDS011;12670;53.502;10.252;2023-11-19T15:39:25;33.83;;;4.43;;
16119;SDS011;12670;53.502;10.252;2023-11-19T15:42:28;23.73;;;5.37;;
16119;SDS011;12670;53.502;10.252;2023-11-19T15:45:32;29.90;;;5.80;;
16119;SDS011;12670;53.502;10.252;2023-11-19T15:48:38;23.77;;;5.77;;
16119;SDS011;12670;53.502;10.252;2023-11-19T15:51:42;26.73;;;5.03;;
16119;SDS011;12670;53.502;10.252;2023-11-19T15:54:46;30.00;;;5.97;;
16119;SDS011;12670;53.502;10.252;2023-11-19T15:57:49;25.67;;;5.20;;
16119;SDS011;12670;53.502;10.252;2023-11-19T16:00:52;22.87;;;4.83;;
16119;SDS011;12670;53.502;10.252;2023-11-19T16:03:55;21.70;;;4.87;;
16119;SDS011;12670;53.502;10.252;2023-11-19T16:06:59;48.70;;;12.60;;
16119;SDS011;12670;53.502;10.252;2023-11-19T16:10:02;29.37;;;7.90;;
16119;SDS011;12670;53.502;10.252;2023-11-19T16:13:05;36.97;;;9.13;;
16119;SDS011;12670;53.502;10.252;2023-11-19T16:16:09;38.17;;;9.10;;
16119;SDS011;12670;53.502;10.252;2023-11-19T16:19:12;27.17;;;7.27;;
16119;SDS011;12670;53.502;10.252;2023-11-19T16:22:16;35.10;;;11.40;;
16119;SDS011;12670;53.502;10.252;2023-11-19T16:25:18;42.20;;;11.40;;
16119;SDS011;12670;53.502;10.252;2023-11-19T16:28:21;39.10;;;6.07;;
16119;SDS011;12670;53.502;10.252;2023-11-19T16:31:25;36.90;;;10.67;;
16119;SDS011;12670;53.502;10.252;2023-11-19T16:34:28;21.03;;;4.90;;
16119;SDS011;12670;53.502;10.252;2023-11-19T16:37:32;23.30;;;4.70;;
16119;SDS011;12670;53.502;10.252;2023-11-19T16:40:35;22.73;;;4.43;;
16119;SDS011;12670;53.502;10.252;2023-11-19T16:43:40;27.30;;;4.90;;
16119;SDS011;12670;53.502;10.252;2023-11-19T16:46:42;22.03;;;3.70;;
16119;SDS011;12670;53.502;10.252;2023-11-19T16:49:46;32.67;;;4.47;;
16119;SDS011;12670;53.502;10.252;2023-11-19T16:52:50;30.80;;;4.90;;
16119;SDS011;12670;53.502;10.252;2023-11-19T16:55:53;24.93;;;4.37;;
16119;SDS011;12670;53.502;10.252;2023-11-19T16:58:56;21.53;;;4.43;;
16119;SDS011;12670;53.502;10.252;2023-11-19T17:01:58;20.57;;;4.20;;
16119;SDS011;12670;53.502;10.252;2023-11-19T17:05:02;19.40;;;3.60;;
16119;SDS011;12670;53.502;10.252;2023-11-19T17:08:06;19.03;;;4.27;;
16119;SDS011;12670;53.502;10.252;2023-11-19T17:11:09;22.33;;;4.17;;
16119;SDS011;12670;53.502;10.252;2023-11-19T17:14:12;26.37;;;4.30;;
16119;SDS011;12670;53.502;10.252;2023-11-19T17:17:14;17.40;;;4.00;;
16119;SDS011;12670;53.502;10.252;2023-11-19T17:20:17;23.43;;;4.37;;
16119;SDS011;12670;53.502;10.252;2023-11-19T17:23:21;16.43;;;4.20;;
16119;SDS011;12670;53.502;10.252;2023-11-19T17:26:24;22.00;;;4.13;;
16119;SDS011;12670;53.502;10.252;2023-11-19T17:29:45;20.50;;;4.40;;
16119;SDS011;12670;53.502;10.252;2023-11-19T17:32:47;21.10;;;4.30;;
16119;SDS011;12670;53.502;10.252;2023-11-19T17:35:50;19.93;;;4.37;;
16119;SDS011;12670;53.502;10.252;2023-11-19T17:38:54;18.03;;;4.00;;
16119;SDS011;12670;53.502;10.252;2023-11-19T17:41:57;20.23;;;4.60;;
16119;SDS011;12670;53.502;10.252;2023-11-19T17:45:00;20.57;;;3.87;;
16119;SDS011;12670;53.502;10.252;2023-11-19T17:48:02;19.20;;;3.83;;
16119;SDS011;12670;53.502;10.252;2023-11-19T17:51:06;14.23;;;3.37;;
16119;SDS011;12670;53.502;10.252;2023-11-19T17:54:10;11.23;;;3.00;;
16119;SDS011;12670;53.502;10.252;2023-11-19T17:57:13;12.70;;;3.57;;
16119;SDS011;12670;53.502;10.252;2023-11-19T18:00:16;15.43;;;2.60;;
16119;SDS011;12670;53.502;10.252;2023-11-19T18:03:20;10.93;;;2.40;;
16119;SDS011;12670;53.502;10.252;2023-11-19T18:06:22;4.63;;;1.93;;
16119;SDS011;12670;53.502;10.252;2023-11-19T18:09:27;18.30;;;3.60;;